createdAt,value
2022-12-11T00:05:14.365Z,86.32
2022-12-11T00:12:16.302Z,86.21
2022-12-11T00:19:18.300Z,86.40
2022-12-11T00:26:20.313Z,86.86
2022-12-11T00:33:22.451Z,86.98
2022-12-11T00:40:24.425Z,87.09
2022-12-11T00:47:26.398Z,87.61
2022-12-11T00:54:28.557Z,87.36
2022-12-11T01:01:30.653Z,87.49
2022-12-11T01:08:38.116Z,87.09
2022-12-11T01:15:43.195Z,87.39
2022-12-11T01:22:45.397Z,87.75
2022-12-11T01:29:47.522Z,87.28
2022-12-11T01:36:49.490Z,87.50
2022-12-11T01:44:07.718Z,87.16
2022-12-11T01:51:09.937Z,87.50
2022-12-11T01:58:12.671Z,87.25
2022-12-11T02:05:15.032Z,87.47
2022-12-11T02:12:17.200Z,87.15
2022-12-11T02:19:25.325Z,87.67
2022-12-11T02:26:45.960Z,87.19
2022-12-11T02:33:54.248Z,86.66
2022-12-11T02:40:57.139Z,86.86
2022-12-11T02:48:00.397Z,86.72
2022-12-11T02:55:03.990Z,86.78
2022-12-11T03:02:06.604Z,86.05
2022-12-11T03:09:09.008Z,85.95
2022-12-11T03:16:38.430Z,86.25
2022-12-11T03:23:53.695Z,85.59
2022-12-11T03:30:57.075Z,85.55
2022-12-11T03:38:03.814Z,85.73
2022-12-11T03:45:07.066Z,84.33
2022-12-11T03:52:10.329Z,84.23
2022-12-11T03:59:12.830Z,84.60
2022-12-11T04:06:14.992Z,85.60
2022-12-11T04:13:17.245Z,84.72
2022-12-11T04:20:38.239Z,85.36
2022-12-11T04:27:52.338Z,85.73
2022-12-11T04:34:54.299Z,85.84
2022-12-11T04:41:56.243Z,86.18
2022-12-11T04:48:58.392Z,87.28
2022-12-11T04:56:00.604Z,87.55
2022-12-11T05:03:02.730Z,87.62
2022-12-11T05:10:05.782Z,87.53
2022-12-11T05:17:07.743Z,88.16
2022-12-11T05:24:09.763Z,88.62
2022-12-11T05:31:17.608Z,88.45
2022-12-11T05:38:19.969Z,88.87
2022-12-11T05:45:22.096Z,88.47
2022-12-11T05:52:24.130Z,88.93
2022-12-11T05:59:26.515Z,88.63
2022-12-11T06:06:28.777Z,88.47
2022-12-11T06:13:30.961Z,88.20
2022-12-11T06:20:34.409Z,88.12
2022-12-11T06:27:36.440Z,88.17
2022-12-11T06:34:38.599Z,88.08
2022-12-11T06:41:40.622Z,88.22
2022-12-11T06:48:43.336Z,88.28
2022-12-11T06:55:45.587Z,88.12
2022-12-11T07:02:47.719Z,87.82
2022-12-11T07:09:49.926Z,87.52
2022-12-11T07:16:52.239Z,87.27
2022-12-11T07:23:54.344Z,86.78
2022-12-11T07:30:56.349Z,86.63
2022-12-11T07:37:59.925Z,86.31
2022-12-11T07:45:01.951Z,86.01
2022-12-11T07:52:04.167Z,86.29
2022-12-11T07:59:06.817Z,85.69
2022-12-11T08:06:09.568Z,85.78
2022-12-11T08:13:12.080Z,85.34
2022-12-11T08:20:14.119Z,85.09
2022-12-11T08:27:16.276Z,85.32
2022-12-11T08:34:19.059Z,85.42
2022-12-11T08:41:26.621Z,85.67
2022-12-11T08:48:28.766Z,85.52
2022-12-11T08:55:30.736Z,85.10
2022-12-11T09:02:32.737Z,85.48
2022-12-11T09:09:35.058Z,85.64
2022-12-11T09:16:41.310Z,85.27
2022-12-11T09:23:44.037Z,85.71
2022-12-11T09:30:46.209Z,85.37
2022-12-11T09:37:48.484Z,85.76
2022-12-11T09:44:54.097Z,85.71
2022-12-11T09:52:02.147Z,86.06
2022-12-11T09:59:23.794Z,85.97
2022-12-11T10:06:47.604Z,85.42
2022-12-11T10:14:08.320Z,86.06
2022-12-11T10:21:10.976Z,86.46
2022-12-11T10:28:18.174Z,86.23
2022-12-11T10:35:28.556Z,85.82
2022-12-11T10:42:31.215Z,85.99
2022-12-11T10:49:35.804Z,85.84
2022-12-11T10:56:39.765Z,86.28
2022-12-11T11:04:07.279Z,86.32
2022-12-11T11:11:20.146Z,86.33
2022-12-11T11:18:27.573Z,85.87
2022-12-11T11:25:31.632Z,86.17
2022-12-11T11:32:39.491Z,85.42
2022-12-11T11:39:45.751Z,85.82
2022-12-11T11:47:00.114Z,86.06
2022-12-11T11:54:27.510Z,86.02
2022-12-11T12:01:30.716Z,86.21
2022-12-11T12:08:39.131Z,86.35
2022-12-11T12:15:50.783Z,86.06
2022-12-11T12:22:58.882Z,86.60
2022-12-11T12:30:15.008Z,86.68
2022-12-11T12:37:28.704Z,87.30
2022-12-11T12:44:36.853Z,87.15
2022-12-11T12:51:48.270Z,87.38
2022-12-11T12:58:52.950Z,87.68
2022-12-11T13:06:16.783Z,87.55
2022-12-11T13:14:09.480Z,87.71
2022-12-11T13:21:45.162Z,88.05
2022-12-11T13:28:52.175Z,88.28
2022-12-11T13:36:24.581Z,88.50
2022-12-11T13:43:30.823Z,88.89
2022-12-11T13:50:39.019Z,88.57
2022-12-11T13:57:48.608Z,89.47
2022-12-11T14:04:53.432Z,89.57
2022-12-11T14:11:57.596Z,89.54
2022-12-11T14:19:06.513Z,89.41
2022-12-11T14:26:23.279Z,89.37
2022-12-11T14:33:48.457Z,89.16
2022-12-11T14:40:59.810Z,88.89
2022-12-11T14:48:21.013Z,88.52
2022-12-11T14:55:50.782Z,88.47
2022-12-11T15:03:15.922Z,88.56
2022-12-11T15:10:29.163Z,88.90
2022-12-11T15:17:37.691Z,88.79
2022-12-11T15:24:44.176Z,89.90
2022-12-11T15:31:48.389Z,90.63
2022-12-11T15:38:50.527Z,90.41
2022-12-11T15:45:53.009Z,90.68
2022-12-11T15:52:56.550Z,90.62
2022-12-11T15:59:59.410Z,90.45
2022-12-11T16:07:03.924Z,90.49
2022-12-11T16:14:06.573Z,90.63
2022-12-11T16:21:08.855Z,90.89
2022-12-11T16:28:13.327Z,89.94
2022-12-11T16:35:26.694Z,89.83
2022-12-11T16:42:29.294Z,89.60
2022-12-11T16:49:33.520Z,89.07
2022-12-11T16:56:37.227Z,88.75
2022-12-11T17:03:40.627Z,88.49
2022-12-11T17:10:43.084Z,88.34
2022-12-11T17:17:46.161Z,88.17
2022-12-11T17:24:49.395Z,88.13
2022-12-11T17:31:53.214Z,88.27
2022-12-11T17:38:55.973Z,88.50
2022-12-11T17:45:58.295Z,87.60
2022-12-11T17:53:01.064Z,88.44
2022-12-11T18:00:03.805Z,88.88
2022-12-11T18:07:06.643Z,88.74
2022-12-11T18:14:15.255Z,88.52
2022-12-11T18:21:22.483Z,88.47
2022-12-11T18:28:25.700Z,88.75
2022-12-11T18:35:30.723Z,88.46
2022-12-11T18:42:34.670Z,87.69
2022-12-11T18:49:37.962Z,87.59
2022-12-11T18:56:42.847Z,87.68
2022-12-11T19:04:01.983Z,87.15
2022-12-11T19:11:07.004Z,87.28
2022-12-11T19:18:14.016Z,88.13
2022-12-11T19:25:17.040Z,88.19
2022-12-11T19:32:19.477Z,88.28
2022-12-11T19:39:24.111Z,89.20
2022-12-11T19:46:28.013Z,89.52
2022-12-11T19:53:31.622Z,89.81
2022-12-11T20:00:38.701Z,89.74
2022-12-11T20:07:43.425Z,90.09
2022-12-11T20:14:49.065Z,90.76
2022-12-11T20:21:54.170Z,91.24
2022-12-11T20:28:56.844Z,91.27
2022-12-11T20:35:59.694Z,91.26
2022-12-11T20:43:02.520Z,91.25
2022-12-11T20:50:05.941Z,90.55
2022-12-11T20:57:09.142Z,90.30
2022-12-11T21:04:11.837Z,90.26
2022-12-11T21:11:16.263Z,89.73
2022-12-11T21:18:25.096Z,89.17
2022-12-11T21:25:27.629Z,88.48
2022-12-11T21:32:30.498Z,88.25
2022-12-11T21:39:39.325Z,87.98
2022-12-11T21:46:44.234Z,87.82
2022-12-11T21:53:46.485Z,88.05
2022-12-11T22:00:48.722Z,88.28
2022-12-11T22:07:50.994Z,88.22
2022-12-11T22:14:53.223Z,88.17
2022-12-11T22:21:55.480Z,88.28
2022-12-11T22:28:58.464Z,87.91
2022-12-11T22:36:00.828Z,87.57
2022-12-11T22:43:03.019Z,87.48
2022-12-11T22:50:06.579Z,87.51
2022-12-11T22:57:09.325Z,87.29
2022-12-11T23:04:11.371Z,87.33
2022-12-11T23:11:22.615Z,87.45
2022-12-11T23:18:24.567Z,87.28
2022-12-11T23:25:28.262Z,87.10
2022-12-11T23:32:30.252Z,87.26
2022-12-11T23:39:32.286Z,87.28
2022-12-11T23:46:34.728Z,87.24
2022-12-11T23:53:36.712Z,87.13
